Dominia — ICFW — position and weather

sailwx.info

Track history (hours):
 
Tides and Currents Weather Stations Pressure Air Temp Water Temp Dewpoint Dewpoint Depression Visibility Wind Speed Wind Dir Waves Ship Positions

Dominia

Last reported at 2016-Apr-30 03:33 UTC. Time now 2016-May-05 06:41 UTC.
Position N 37°49' E 024°25'.

Length 176 m; draft 9.9 m.

Type: Tanker. MMSI: 247273400.

Date/timePositionNaut miles runAvg speedWind from/ knotsBaromVisibWave heightAir tempDewpointWater temp
2016-Apr-30 03:33N 37°49' E 024°25'2110.5
2016-Apr-30 01:31N 37°36' E 024°03'1111.8
2016-Apr-30 00:33N 37°36' E 023°49'1111.1
2016-Apr-29 23:33N 37°44' E 023°40'1110.9
2016-Apr-29 22:33N 37°50' E 023°28'1212.4
2016-Apr-29 21:33N 37°53' E 023°13'6 0.8
2016-Apr-29 13:25N 37°55' E 023°05'0 0.0
2016-Apr-29 11:19N 37°55' E 023°05'0 0.0
2016-Apr-29 09:25N 37°55' E 023°05'0 0.0
2016-Apr-29 08:28N 37°55' E 023°05'0 0.0
2016-Apr-29 07:31N 37°55' E 023°05'0 0.0
2016-Apr-29 02:22N 37°55' E 023°05'0 0.0
2016-Apr-29 00:25N 37°55' E 023°05'0 0.0
2016-Apr-28 23:25N 37°55' E 023°05'0 0.0
2016-Apr-28 22:22N 37°55' E 023°05'0 0.0
2016-Apr-28 20:16N 37°55' E 023°05'0 0.0
2016-Apr-28 19:31N 37°55' E 023°05'0 0.0
2016-Apr-28 18:22N 37°55' E 023°05'0 0.0
2016-Apr-28 17:28N 37°55' E 023°05'0 0.0
2016-Apr-28 16:22N 37°55' E 023°05'0 0.0
2016-Apr-28 15:10N 37°55' E 023°05'0 0.0
2016-Apr-28 14:16N 37°55' E 023°05'0 0.0
2016-Apr-28 13:19N 37°55' E 023°05'0 0.0
2016-Apr-28 12:22N 37°55' E 023°05'0 0.0
2016-Apr-28 09:13N 37°55' E 023°05'0 0.0
2016-Apr-28 08:31N 37°55' E 023°05'0 0.0
2016-Apr-28 07:25N 37°55' E 023°05'0 0.0
2016-Apr-28 06:33N 37°55' E 023°05'1 0.7
2016-Apr-28 05:33N 37°55' E 023°06'4 4.0
2016-Apr-28 04:33N 37°53' E 023°11'10 9.5
2016-Apr-28 03:33N 37°51' E 023°22'1312.7
2016-Apr-28 02:34N 37°50' E 023°38'1212.0
2016-Apr-28 01:33N 37°40' E 023°45'1312.7
2016-Apr-28 00:33N 37°27' E 023°43'1312.6
2016-Apr-27 23:33N 37°15' E 023°40'1312.8
2016-Apr-27 22:33N 37°02' E 023°37'1312.9
2016-Apr-27 21:33N 36°50' E 023°34'1313.2
2016-Apr-27 20:33N 36°38' E 023°26'35713.1
2016-Apr-26 17:14N 37°45' E 016°05'1014.6
2016-Apr-26 16:32N 37°48' E 015°53'1413.9
2016-Apr-26 15:33N 37°55' E 015°39'1414.3
2016-Apr-26 14:33N 38°09' E 015°35'1212.2
2016-Apr-26 13:33N 38°21' E 015°39'1414.1
2016-Apr-26 12:34N 38°33' E 015°31'1514.5
2016-Apr-26 11:33N 38°46' E 015°23'11714.6
2016-Apr-26 03:33N 40°21' E 013°55'1414.4
2016-Apr-26 02:33N 40°34' E 013°45'1413.8
2016-Apr-26 01:33N 40°47' E 013°40'1414.1
2016-Apr-26 00:33N 41°01' E 013°40'1212.4
2016-Apr-25 23:33N 41°13' E 013°36'1 0.1
2016-Apr-25 16:11N 41°13' E 013°34'0 0.0
2016-Apr-25 14:28N 41°13' E 013°34'0 0.0
2016-Apr-25 06:17N 41°13' E 013°34'0 0.0
2016-Apr-25 05:29N 41°13' E 013°34'0 0.0
2016-Apr-25 04:22N 41°13' E 013°34'0 0.0
2016-Apr-25 03:28N 41°13' E 013°34'0 0.0
2016-Apr-24 22:29N 41°13' E 013°34'27 2.1
2016-Apr-24 09:33N 40°47' E 013°39'1110.7
2016-Apr-24 08:33N 40°36' E 013°43'1111.3
2016-Apr-24 07:33N 40°27' E 013°51'1211.6
2016-Apr-24 06:30N 40°17' E 014°01'10811.9
2016-Apr-23 21:27N 38°49' E 015°21'1211.8
2016-Apr-23 20:26N 38°38' E 015°28'1011.8
2016-Apr-23 19:33N 38°29' E 015°34'1211.7
2016-Apr-23 18:33N 38°19' E 015°42'1010.5
2016-Apr-23 17:34N 38°09' E 015°37'1111.2
2016-Apr-23 16:33N 37°58' E 015°33'1211.4
2016-Apr-23 15:33N 37°47' E 015°30'1212.3
2016-Apr-23 14:33N 37°35' E 015°26'1412.7
2016-Apr-23 13:28N 37°22' E 015°21'  
2016-Apr-20 16:07N 37°17' E 015°28'1112.8
2016-Apr-20 15:15N 37°25' E 015°37'1013.3
2016-Apr-20 14:28N 37°32' E 015°46'1212.8
2016-Apr-20 13:33N 37°41' E 015°57'7912.7
2016-Apr-20 07:21N 38°39' E 017°04'  
Track history (hours):
 
Tides and Currents Weather Stations Pressure Air Temp Water Temp Dewpoint Dewpoint Depression Visibility Wind Speed Wind Dir Waves Ship Positions

Dominia

Last reported at 2016-Apr-30 03:33 UTC. Time now 2016-May-05 06:41 UTC.
Position N 37°49' E 024°25'.

Length 176 m; draft 9.9 m.

Type: Tanker. MMSI: 247273400.

Date/timePositionNaut miles runAvg speedWind from/ knotsBaromVisibWave heightAir tempDewpointWater temp
2016-Apr-30 03:33N 37°49' E 024°25'2110.5
2016-Apr-30 01:31N 37°36' E 024°03'1111.8
2016-Apr-30 00:33N 37°36' E 023°49'1111.1
2016-Apr-29 23:33N 37°44' E 023°40'1110.9
2016-Apr-29 22:33N 37°50' E 023°28'1212.4
2016-Apr-29 21:33N 37°53' E 023°13'6 0.8
2016-Apr-29 13:25N 37°55' E 023°05'0 0.0
2016-Apr-29 11:19N 37°55' E 023°05'0 0.0
2016-Apr-29 09:25N 37°55' E 023°05'0 0.0
2016-Apr-29 08:28N 37°55' E 023°05'0 0.0
2016-Apr-29 07:31N 37°55' E 023°05'0 0.0
2016-Apr-29 02:22N 37°55' E 023°05'0 0.0
2016-Apr-29 00:25N 37°55' E 023°05'0 0.0
2016-Apr-28 23:25N 37°55' E 023°05'0 0.0
2016-Apr-28 22:22N 37°55' E 023°05'0 0.0
2016-Apr-28 20:16N 37°55' E 023°05'0 0.0
2016-Apr-28 19:31N 37°55' E 023°05'0 0.0
2016-Apr-28 18:22N 37°55' E 023°05'0 0.0
2016-Apr-28 17:28N 37°55' E 023°05'0 0.0
2016-Apr-28 16:22N 37°55' E 023°05'0 0.0
2016-Apr-28 15:10N 37°55' E 023°05'0 0.0
2016-Apr-28 14:16N 37°55' E 023°05'0 0.0
2016-Apr-28 13:19N 37°55' E 023°05'0 0.0
2016-Apr-28 12:22N 37°55' E 023°05'0 0.0
2016-Apr-28 09:13N 37°55' E 023°05'0 0.0
2016-Apr-28 08:31N 37°55' E 023°05'0 0.0
2016-Apr-28 07:25N 37°55' E 023°05'0 0.0
2016-Apr-28 06:33N 37°55' E 023°05'1 0.7
2016-Apr-28 05:33N 37°55' E 023°06'4 4.0
2016-Apr-28 04:33N 37°53' E 023°11'10 9.5
2016-Apr-28 03:33N 37°51' E 023°22'1312.7
2016-Apr-28 02:34N 37°50' E 023°38'1212.0
2016-Apr-28 01:33N 37°40' E 023°45'1312.7
2016-Apr-28 00:33N 37°27' E 023°43'1312.6
2016-Apr-27 23:33N 37°15' E 023°40'1312.8
2016-Apr-27 22:33N 37°02' E 023°37'1312.9
2016-Apr-27 21:33N 36°50' E 023°34'1313.2
2016-Apr-27 20:33N 36°38' E 023°26'35713.1
2016-Apr-26 17:14N 37°45' E 016°05'1014.6
2016-Apr-26 16:32N 37°48' E 015°53'1413.9
2016-Apr-26 15:33N 37°55' E 015°39'1414.3
2016-Apr-26 14:33N 38°09' E 015°35'1212.2
2016-Apr-26 13:33N 38°21' E 015°39'1414.1
2016-Apr-26 12:34N 38°33' E 015°31'1514.5
2016-Apr-26 11:33N 38°46' E 015°23'11714.6
2016-Apr-26 03:33N 40°21' E 013°55'1414.4
2016-Apr-26 02:33N 40°34' E 013°45'1413.8
2016-Apr-26 01:33N 40°47' E 013°40'1414.1
2016-Apr-26 00:33N 41°01' E 013°40'1212.4
2016-Apr-25 23:33N 41°13' E 013°36'1 0.1
2016-Apr-25 16:11N 41°13' E 013°34'0 0.0
2016-Apr-25 14:28N 41°13' E 013°34'0 0.0
2016-Apr-25 06:17N 41°13' E 013°34'0 0.0
2016-Apr-25 05:29N 41°13' E 013°34'0 0.0
2016-Apr-25 04:22N 41°13' E 013°34'0 0.0
2016-Apr-25 03:28N 41°13' E 013°34'0 0.0
2016-Apr-24 22:29N 41°13' E 013°34'27 2.1
2016-Apr-24 09:33N 40°47' E 013°39'1110.7
2016-Apr-24 08:33N 40°36' E 013°43'1111.3
2016-Apr-24 07:33N 40°27' E 013°51'1211.6
2016-Apr-24 06:30N 40°17' E 014°01'10811.9
2016-Apr-23 21:27N 38°49' E 015°21'1211.8
2016-Apr-23 20:26N 38°38' E 015°28'1011.8
2016-Apr-23 19:33N 38°29' E 015°34'1211.7
2016-Apr-23 18:33N 38°19' E 015°42'1010.5
2016-Apr-23 17:34N 38°09' E 015°37'1111.2
2016-Apr-23 16:33N 37°58' E 015°33'1211.4
2016-Apr-23 15:33N 37°47' E 015°30'1212.3
2016-Apr-23 14:33N 37°35' E 015°26'1412.7
2016-Apr-23 13:28N 37°22' E 015°21'  
2016-Apr-20 16:07N 37°17' E 015°28'1112.8
2016-Apr-20 15:15N 37°25' E 015°37'1013.3
2016-Apr-20 14:28N 37°32' E 015°46'1212.8
2016-Apr-20 13:33N 37°41' E 015°57'7912.7
2016-Apr-20 07:21N 38°39' E 017°04'  

Dump ship's entire track history